This is the latest recevied weather packets stored in our database for station/object OH2HCY. If no packets are shown the sender has not sent any weather packets the latest 10 day(s).
| Time | Temp. | Humidity | Pressure | Rain* | Wind** | Luminosity | Snow |
|---|---|---|---|---|---|---|---|
| 1777605320 | 6.67° C | 78% | 1019.6 hPa | - | - | - | - |
| 1777604765 | 6.67° C | 78% | 1019.6 hPa | - | - | - | - |
| 1777604225 | 6.67° C | 78% | 1019.5 hPa | - | - | - | - |
| 1777603685 | 6.67° C | 78% | 1019.5 hPa | - | - | - | - |
| 1777603125 | 6.67° C | 78% | 1019.6 hPa | - | - | - | - |
| 1777602595 | 7.22° C | 77% | 1019.6 hPa | - | - | - | - |
| 1777602025 | 7.22° C | 77% | 1019.6 hPa | - | - | - | - |
| 1777601480 | 7.78° C | 76% | 1019.4 hPa | - | - | - | - |
| 1777600970 | 7.78° C | 76% | 1019.3 hPa | - | - | - | - |
| 1777600425 | 7.78° C | 75% | 1019.2 hPa | - | - | - | - |
| 1777586843 | 10.56° C | 67% | 1017.9 hPa | - | - | - | - |
| 1777586275 | 10.56° C | 66% | 1017.8 hPa | - | - | - | - |
| 1777585760 | 10.56° C | 65% | 1017.6 hPa | - | - | - | - |
| 1777585165 | 11.11° C | 65% | 1017.5 hPa | - | - | - | - |
| 1777584600 | 11.11° C | 64% | 1017.3 hPa | - | - | - | - |
| 1777584085 | 11.11° C | 63% | 1017.1 hPa | - | - | - | - |
| 1777583560 | 11.67° C | 62% | 1017 hPa | - | - | - | - |
| 1777582489 | 12.22° C | 61% | 1016.8 hPa | - | - | - | - |
| 1777580415 | 12.78° C | 61% | 1016.6 hPa | - | - | - | - |
| 1777579879 | 12.78° C | 60% | 1016.5 hPa | - | - | - | - |
| 1777579349 | 12.78° C | 59% | 1016.4 hPa | - | - | - | - |
| 1777578270 | 12.78° C | 60% | 1016.4 hPa | - | - | - | - |
| 1777577760 | 12.78° C | 61% | 1016.5 hPa | - | - | - | - |
| 1777577209 | 12.22° C | 63% | 1016.6 hPa | - | - | - | - |
| 1777576696 | 12.22° C | 64% | 1016.5 hPa | - | - | - | - |
* Rain since midnight (hover to see other rain measurements)
** Current wind speed in m/s (hover to see current wind gust speed)